sensor_id;sensor_type;location;lat;lon;timestamp;pressure;altitude;pressure_sealevel;temperature;humidity
14767;BME280;7475;53.558;9.970;2022-11-20T00:00:54;101208.97;;;3.32;100.00
14767;BME280;7475;53.558;9.970;2022-11-20T00:03:20;101205.53;;;3.30;100.00
14767;BME280;7475;53.558;9.970;2022-11-20T00:05:45;101218.69;;;3.28;100.00
14767;BME280;7475;53.558;9.970;2022-11-20T00:08:11;101216.09;;;3.27;100.00
14767;BME280;7475;53.558;9.970;2022-11-20T00:10:38;101212.59;;;3.28;100.00
14767;BME280;7475;53.558;9.970;2022-11-20T00:13:03;101211.69;;;3.29;100.00
14767;BME280;7475;53.558;9.970;2022-11-20T00:15:29;101209.06;;;3.29;100.00
14767;BME280;7475;53.558;9.970;2022-11-20T00:17:55;101207.25;;;3.31;100.00
14767;BME280;7475;53.558;9.970;2022-11-20T00:20:20;101208.06;;;3.33;100.00
14767;BME280;7475;53.558;9.970;2022-11-20T00:22:45;101207.16;;;3.34;100.00
14767;BME280;7475;53.558;9.970;2022-11-20T00:25:11;101205.34;;;3.36;100.00
14767;BME280;7475;53.558;9.970;2022-11-20T00:27:36;101208.78;;;3.38;100.00
14767;BME280;7475;53.558;9.970;2022-11-20T00:30:02;101208.78;;;3.38;100.00
14767;BME280;7475;53.558;9.970;2022-11-20T00:32:28;101208.78;;;3.38;100.00
14767;BME280;7475;53.558;9.970;2022-11-20T00:34:54;101210.53;;;3.39;100.00
14767;BME280;7475;53.558;9.970;2022-11-20T00:37:19;101207.00;;;3.40;100.00
14767;BME280;7475;53.558;9.970;2022-11-20T00:39:44;101201.75;;;3.40;100.00
14767;BME280;7475;53.558;9.970;2022-11-20T00:42:10;101203.47;;;3.41;100.00
14767;BME280;7475;53.558;9.970;2022-11-20T00:44:35;101212.06;;;3.46;100.00
14767;BME280;7475;53.558;9.970;2022-11-20T00:47:00;101205.13;;;3.45;100.00
14767;BME280;7475;53.558;9.970;2022-11-20T00:49:25;101206.00;;;3.44;100.00
14767;BME280;7475;53.558;9.970;2022-11-20T00:51:51;101203.38;;;3.44;100.00
14767;BME280;7475;53.558;9.970;2022-11-20T00:54:16;101192.88;;;3.44;100.00
14767;BME280;7475;53.558;9.970;2022-11-20T00:56:41;101199.84;;;3.45;100.00
14767;BME280;7475;53.558;9.970;2022-11-20T00:59:08;101199.84;;;3.45;100.00
14767;BME280;7475;53.558;9.970;2022-11-20T01:01:34;101197.22;;;3.45;100.00
14767;BME280;7475;53.558;9.970;2022-11-20T01:04:00;101200.78;;;3.43;100.00
14767;BME280;7475;53.558;9.970;2022-11-20T01:06:31;101194.69;;;3.42;100.00
14767;BME280;7475;53.558;9.970;2022-11-20T01:08:59;101194.69;;;3.42;100.00
14767;BME280;7475;53.558;9.970;2022-11-20T01:11:27;101196.59;;;3.37;100.00
14767;BME280;7475;53.558;9.970;2022-11-20T01:13:54;101198.56;;;3.29;100.00
14767;BME280;7475;53.558;9.970;2022-11-20T01:18:48;101192.44;;;3.28;100.00
14767;BME280;7475;53.558;9.970;2022-11-20T01:21:19;101197.00;;;3.22;100.00
14767;BME280;7475;53.558;9.970;2022-11-20T01:23:45;101189.09;;;3.23;100.00
14767;BME280;7475;53.558;9.970;2022-11-20T01:26:14;101197.00;;;3.22;100.00
14767;BME280;7475;53.558;9.970;2022-11-20T01:28:40;101187.44;;;3.19;100.00
14767;BME280;7475;53.558;9.970;2022-11-20T01:31:12;101180.41;;;3.21;100.00
14767;BME280;7475;53.558;9.970;2022-11-20T01:33:39;101172.56;;;3.20;100.00
14767;BME280;7475;53.558;9.970;2022-11-20T01:36:05;101169.09;;;3.18;100.00
14767;BME280;7475;53.558;9.970;2022-11-20T01:38:30;101176.00;;;3.22;100.00
14767;BME280;7475;53.558;9.970;2022-11-20T01:40:56;101170.75;;;3.22;100.00
14767;BME280;7475;53.558;9.970;2022-11-20T01:43:22;101170.66;;;3.25;100.00
14767;BME280;7475;53.558;9.970;2022-11-20T01:48:33;101164.53;;;3.26;100.00
14767;BME280;7475;53.558;9.970;2022-11-20T01:51:02;101158.34;;;3.27;100.00
14767;BME280;7475;53.558;9.970;2022-11-20T01:53:32;101151.31;;;3.29;100.00
14767;BME280;7475;53.558;9.970;2022-11-20T01:56:00;101160.09;;;3.28;100.00
14767;BME280;7475;53.558;9.970;2022-11-20T01:58:30;101158.34;;;3.27;100.00
14767;BME280;7475;53.558;9.970;2022-11-20T02:00:56;101144.38;;;3.26;100.00
14767;BME280;7475;53.558;9.970;2022-11-20T02:03:21;101153.09;;;3.27;100.00
14767;BME280;7475;53.558;9.970;2022-11-20T02:06:04;101146.16;;;3.26;100.00
14767;BME280;7475;53.558;9.970;2022-11-20T02:08:32;101146.06;;;3.29;100.00
14767;BME280;7475;53.558;9.970;2022-11-20T02:10:57;101140.69;;;3.32;100.00
14767;BME280;7475;53.558;9.970;2022-11-20T02:13:23;101138.19;;;3.29;100.00
14767;BME280;7475;53.558;9.970;2022-11-20T02:16:16;101139.06;;;3.28;100.00
14767;BME280;7475;53.558;9.970;2022-11-20T02:18:43;101139.97;;;3.27;100.00
14767;BME280;7475;53.558;9.970;2022-11-20T02:21:15;101137.34;;;3.27;100.00
14767;BME280;7475;53.558;9.970;2022-11-20T02:26:22;101132.09;;;3.27;100.00
14767;BME280;7475;53.558;9.970;2022-11-20T02:28:48;101133.91;;;3.25;100.00
14767;BME280;7475;53.558;9.970;2022-11-20T02:31:14;101129.56;;;3.24;100.00
14767;BME280;7475;53.558;9.970;2022-11-20T02:33:39;101128.75;;;3.22;100.00
14767;BME280;7475;53.558;9.970;2022-11-20T02:36:04;101128.84;;;3.19;100.00
14767;BME280;7475;53.558;9.970;2022-11-20T02:38:31;101132.47;;;3.15;100.00
14767;BME280;7475;53.558;9.970;2022-11-20T02:40:56;101130.66;;;3.17;100.00
14767;BME280;7475;53.558;9.970;2022-11-20T02:43:22;101137.50;;;3.21;100.00
14767;BME280;7475;53.558;9.970;2022-11-20T02:45:48;101130.56;;;3.20;100.00
14767;BME280;7475;53.558;9.970;2022-11-20T02:48:13;101132.25;;;3.21;100.00
14767;BME280;7475;53.558;9.970;2022-11-20T02:50:39;101127.84;;;3.23;100.00
14767;BME280;7475;53.558;9.970;2022-11-20T02:53:05;101123.41;;;3.25;100.00
14767;BME280;7475;53.558;9.970;2022-11-20T02:55:31;101117.31;;;3.24;100.00
14767;BME280;7475;53.558;9.970;2022-11-20T02:57:56;101107.66;;;3.25;100.00
14767;BME280;7475;53.558;9.970;2022-11-20T03:00:21;101104.16;;;3.26;100.00
14767;BME280;7475;53.558;9.970;2022-11-20T03:02:47;101107.66;;;3.25;100.00
14767;BME280;7475;53.558;9.970;2022-11-20T03:05:12;101108.56;;;3.24;100.00
14767;BME280;7475;53.558;9.970;2022-11-20T03:07:37;101116.44;;;3.24;100.00
14767;BME280;7475;53.558;9.970;2022-11-20T03:10:04;101109.47;;;3.23;100.00
14767;BME280;7475;53.558;9.970;2022-11-20T03:12:29;101107.75;;;3.22;100.00
14767;BME280;7475;53.558;9.970;2022-11-20T03:14:54;101112.16;;;3.21;100.00
14767;BME280;7475;53.558;9.970;2022-11-20T03:17:20;101113.09;;;3.19;100.00
14767;BME280;7475;53.558;9.970;2022-11-20T03:19:45;101107.84;;;3.19;100.00
14767;BME280;7475;53.558;9.970;2022-11-20T03:22:10;101108.00;;;3.13;100.00
14767;BME280;7475;53.558;9.970;2022-11-20T03:24:35;101111.72;;;3.05;100.00
14767;BME280;7475;53.558;9.970;2022-11-20T03:27:01;101111.72;;;3.05;100.00
14767;BME280;7475;53.558;9.970;2022-11-20T03:29:26;101117.91;;;3.03;100.00
14767;BME280;7475;53.558;9.970;2022-11-20T03:31:51;101118.75;;;3.03;100.00
14767;BME280;7475;53.558;9.970;2022-11-20T03:34:17;101115.16;;;3.07;100.00
14767;BME280;7475;53.558;9.970;2022-11-20T03:36:42;101112.53;;;3.07;100.00
14767;BME280;7475;53.558;9.970;2022-11-20T03:39:07;101102.91;;;3.06;100.00
14767;BME280;7475;53.558;9.970;2022-11-20T03:41:40;101107.28;;;3.07;100.00
14767;BME280;7475;53.558;9.970;2022-11-20T03:44:08;101099.41;;;3.07;100.00
14767;BME280;7475;53.558;9.970;2022-11-20T03:46:34;101095.88;;;3.08;100.00
14767;BME280;7475;53.558;9.970;2022-11-20T03:49:00;101097.59;;;3.09;100.00
14767;BME280;7475;53.558;9.970;2022-11-20T03:51:27;101090.56;;;3.12;100.00
14767;BME280;7475;53.558;9.970;2022-11-20T03:53:55;101090.56;;;3.12;100.00
14767;BME280;7475;53.558;9.970;2022-11-20T03:56:27;101092.41;;;3.06;100.00
14767;BME280;7475;53.558;9.970;2022-11-20T03:58:53;101081.94;;;3.06;100.00
14767;BME280;7475;53.558;9.970;2022-11-20T04:01:24;101081.13;;;3.04;100.00
14767;BME280;7475;53.558;9.970;2022-11-20T04:03:52;101085.56;;;3.02;100.00
14767;BME280;7475;53.558;9.970;2022-11-20T04:06:19;101087.25;;;3.03;100.00
14767;BME280;7475;53.558;9.970;2022-11-20T04:08:45;101089.88;;;3.03;100.00
14767;BME280;7475;53.558;9.970;2022-11-20T04:11:16;101083.75;;;3.04;100.00
14767;BME280;7475;53.558;9.970;2022-11-20T04:13:46;101081.97;;;3.05;100.00
14767;BME280;7475;53.558;9.970;2022-11-20T04:16:11;101082.81;;;3.07;100.00
14767;BME280;7475;53.558;9.970;2022-11-20T04:18:37;101086.31;;;3.06;100.00
14767;BME280;7475;53.558;9.970;2022-11-20T04:21:03;101082.00;;;3.03;100.00
14767;BME280;7475;53.558;9.970;2022-11-20T04:23:29;101078.56;;;3.01;100.00
14767;BME280;7475;53.558;9.970;2022-11-20T04:26:00;101080.31;;;3.02;100.00
14767;BME280;7475;53.558;9.970;2022-11-20T04:28:25;101071.50;;;3.03;100.00
14767;BME280;7475;53.558;9.970;2022-11-20T04:30:50;101081.06;;;3.06;100.00
14767;BME280;7475;53.558;9.970;2022-11-20T04:33:16;101073.25;;;3.04;100.00
14767;BME280;7475;53.558;9.970;2022-11-20T04:35:41;101075.06;;;3.02;100.00
14767;BME280;7475;53.558;9.970;2022-11-20T04:38:06;101069.91;;;2.99;100.00
14767;BME280;7475;53.558;9.970;2022-11-20T04:40:32;101076.97;;;2.97;100.00
14767;BME280;7475;53.558;9.970;2022-11-20T04:42:57;101076.97;;;2.97;100.00
14767;BME280;7475;53.558;9.970;2022-11-20T04:45:23;101066.47;;;2.97;100.00
14767;BME280;7475;53.558;9.970;2022-11-20T04:47:49;101063.81;;;2.99;100.00
14767;BME280;7475;53.558;9.970;2022-11-20T04:50:14;101064.66;;;2.99;100.00
14767;BME280;7475;53.558;9.970;2022-11-20T04:52:39;101068.09;;;3.01;100.00
14767;BME280;7475;53.558;9.970;2022-11-20T04:55:05;101056.69;;;3.02;100.00
14767;BME280;7475;53.558;9.970;2022-11-20T04:57:31;101062.84;;;3.01;100.00
14767;BME280;7475;53.558;9.970;2022-11-20T04:59:56;101069.09;;;2.97;100.00
14767;BME280;7475;53.558;9.970;2022-11-20T05:02:21;101059.47;;;2.96;100.00
14767;BME280;7475;53.558;9.970;2022-11-20T05:04:47;101056.06;;;2.94;100.00
14767;BME280;7475;53.558;9.970;2022-11-20T05:07:12;101059.56;;;2.93;100.00
14767;BME280;7475;53.558;9.970;2022-11-20T05:09:38;101056.06;;;2.94;100.00
14767;BME280;7475;53.558;9.970;2022-11-20T05:12:03;101052.50;;;2.95;100.00
14767;BME280;7475;53.558;9.970;2022-11-20T05:14:28;101054.25;;;2.96;100.00
14767;BME280;7475;53.558;9.970;2022-11-20T05:16:54;101054.25;;;2.96;100.00
14767;BME280;7475;53.558;9.970;2022-11-20T05:19:19;101048.09;;;2.97;100.00
14767;BME280;7475;53.558;9.970;2022-11-20T05:21:44;101038.56;;;2.93;100.00
14767;BME280;7475;53.558;9.970;2022-11-20T05:24:10;101047.34;;;2.92;100.00
14767;BME280;7475;53.558;9.970;2022-11-20T05:26:35;101038.66;;;2.90;100.00
14767;BME280;7475;53.558;9.970;2022-11-20T05:29:00;101040.41;;;2.91;100.00
14767;BME280;7475;53.558;9.970;2022-11-20T05:31:27;101041.25;;;2.91;100.00
14767;BME280;7475;53.558;9.970;2022-11-20T05:33:53;101038.75;;;2.87;100.00
14767;BME280;7475;53.558;9.970;2022-11-20T05:36:18;101044.06;;;2.84;100.00
14767;BME280;7475;53.558;9.970;2022-11-20T05:38:44;101036.25;;;2.82;100.00
14767;BME280;7475;53.558;9.970;2022-11-20T05:41:17;101035.41;;;2.82;100.00
14767;BME280;7475;53.558;9.970;2022-11-20T05:43:45;101031.97;;;2.80;100.00
14767;BME280;7475;53.558;9.970;2022-11-20T05:46:12;101024.13;;;2.78;100.00
14767;BME280;7475;53.558;9.970;2022-11-20T05:48:39;101026.88;;;2.73;100.00
14767;BME280;7475;53.558;9.970;2022-11-20T05:51:07;101017.38;;;2.69;100.00
14767;BME280;7475;53.558;9.970;2022-11-20T05:53:34;101019.19;;;2.67;100.00
14767;BME280;7475;53.558;9.970;2022-11-20T05:56:02;101018.22;;;2.71;100.00
14767;BME280;7475;53.558;9.970;2022-11-20T05:58:29;101013.81;;;2.72;100.00
14767;BME280;7475;53.558;9.970;2022-11-20T06:01:03;101014.75;;;2.69;100.00
14767;BME280;7475;53.558;9.970;2022-11-20T06:03:28;101012.22;;;2.66;100.00
14767;BME280;7475;53.558;9.970;2022-11-20T06:05:54;101014.03;;;2.64;100.00
14767;BME280;7475;53.558;9.970;2022-11-20T06:08:19;101023.69;;;2.62;100.00
14767;BME280;7475;53.558;9.970;2022-11-20T06:10:44;101016.72;;;2.61;100.00
14767;BME280;7475;53.558;9.970;2022-11-20T06:13:09;101025.53;;;2.60;100.00
14767;BME280;7475;53.558;9.970;2022-11-20T06:15:35;101021.31;;;2.53;100.00
14767;BME280;7475;53.558;9.970;2022-11-20T06:18:00;101022.31;;;2.49;100.00
14767;BME280;7475;53.558;9.970;2022-11-20T06:20:25;101020.28;;;2.60;100.00
14767;BME280;7475;53.558;9.970;2022-11-20T06:22:51;101015.09;;;2.57;100.00
14767;BME280;7475;53.558;9.970;2022-11-20T06:25:16;101018.69;;;2.53;100.00
14767;BME280;7475;53.558;9.970;2022-11-20T06:27:41;101016.19;;;2.48;100.00
14767;BME280;7475;53.558;9.970;2022-11-20T06:30:07;101029.28;;;2.50;100.00
14767;BME280;7475;53.558;9.970;2022-11-20T06:32:32;101020.59;;;2.48;100.00
14767;BME280;7475;53.558;9.970;2022-11-20T06:34:58;101027.56;;;2.49;100.00
14767;BME280;7475;53.558;9.970;2022-11-20T06:37:23;101020.44;;;2.54;100.00
14767;BME280;7475;53.558;9.970;2022-11-20T06:39:48;101020.44;;;2.54;100.00
14767;BME280;7475;53.558;9.970;2022-11-20T06:42:14;101016.97;;;2.52;100.00
14767;BME280;7475;53.558;9.970;2022-11-20T06:44:39;101020.44;;;2.54;100.00
14767;BME280;7475;53.558;9.970;2022-11-20T06:47:04;101023.91;;;2.54;100.00
14767;BME280;7475;53.558;9.970;2022-11-20T06:49:30;101016.09;;;2.53;100.00
14767;BME280;7475;53.558;9.970;2022-11-20T06:51:55;101009.94;;;2.54;100.00
14767;BME280;7475;53.558;9.970;2022-11-20T06:54:20;101015.97;;;2.58;100.00
14767;BME280;7475;53.558;9.970;2022-11-20T06:56:49;101016.81;;;2.58;100.00
14767;BME280;7475;53.558;9.970;2022-11-20T06:59:14;101012.47;;;2.57;100.00
14767;BME280;7475;53.558;9.970;2022-11-20T07:01:39;101006.31;;;2.58;100.00
14767;BME280;7475;53.558;9.970;2022-11-20T07:04:05;101006.31;;;2.58;100.00
14767;BME280;7475;53.558;9.970;2022-11-20T07:06:30;101015.06;;;2.59;100.00
14767;BME280;7475;53.558;9.970;2022-11-20T07:08:56;101015.09;;;2.57;100.00
14767;BME280;7475;53.558;9.970;2022-11-20T07:11:22;101020.34;;;2.57;100.00
14767;BME280;7475;53.558;9.970;2022-11-20T07:13:47;101019.56;;;2.53;100.00
14767;BME280;7475;53.558;9.970;2022-11-20T07:16:13;101015.28;;;2.51;100.00
14767;BME280;7475;53.558;9.970;2022-11-20T07:18:38;101025.75;;;2.51;100.00
14767;BME280;7475;53.558;9.970;2022-11-20T07:21:07;101018.69;;;2.53;100.00
14767;BME280;7475;53.558;9.970;2022-11-20T07:23:33;101018.63;;;2.56;100.00
14767;BME280;7475;53.558;9.970;2022-11-20T07:26:06;101008.22;;;2.53;100.00
14767;BME280;7475;53.558;9.970;2022-11-20T07:28:32;101008.22;;;2.53;100.00
14767;BME280;7475;53.558;9.970;2022-11-20T07:30:58;101003.06;;;2.50;100.00
14767;BME280;7475;53.558;9.970;2022-11-20T07:33:23;101010.03;;;2.51;100.00
14767;BME280;7475;53.558;9.970;2022-11-20T07:35:48;101009.94;;;2.54;100.00
14767;BME280;7475;53.558;9.970;2022-11-20T07:38:14;101013.38;;;2.56;100.00
14767;BME280;7475;53.558;9.970;2022-11-20T07:40:39;101009.88;;;2.57;100.00
14767;BME280;7475;53.558;9.970;2022-11-20T07:43:04;101008.06;;;2.59;100.00
14767;BME280;7475;53.558;9.970;2022-11-20T07:45:30;101014.94;;;2.63;100.00
14767;BME280;7475;53.558;9.970;2022-11-20T07:47:55;101018.28;;;2.68;100.00
14767;BME280;7475;53.558;9.970;2022-11-20T07:50:20;101014.66;;;2.72;100.00
14767;BME280;7475;53.558;9.970;2022-11-20T07:52:46;101018.91;;;2.78;100.00
14767;BME280;7475;53.558;9.970;2022-11-20T07:55:11;101018.69;;;2.86;100.00
14767;BME280;7475;53.558;9.970;2022-11-20T07:57:37;101009.00;;;2.88;100.00
14767;BME280;7475;53.558;9.970;2022-11-20T08:00:07;101014.16;;;2.91;100.00
14767;BME280;7475;53.558;9.970;2022-11-20T08:02:41;101007.09;;;2.93;100.00
14767;BME280;7475;53.558;9.970;2022-11-20T08:05:08;101009.59;;;2.98;100.00
14767;BME280;7475;53.558;9.970;2022-11-20T08:07:37;101003.28;;;3.03;100.00
14767;BME280;7475;53.558;9.970;2022-11-20T08:10:03;101006.66;;;3.08;100.00
14767;BME280;7475;53.558;9.970;2022-11-20T08:12:28;101008.25;;;3.13;100.00
14767;BME280;7475;53.558;9.970;2022-11-20T08:15:12;101001.94;;;3.20;100.00
14767;BME280;7475;53.558;9.970;2022-11-20T08:17:37;101002.75;;;3.22;100.00
14767;BME280;7475;53.558;9.970;2022-11-20T08:20:03;101006.19;;;3.24;100.00
14767;BME280;7475;53.558;9.970;2022-11-20T08:22:28;101002.56;;;3.28;100.00
14767;BME280;7475;53.558;9.970;2022-11-20T08:24:54;101003.31;;;3.32;100.00
14767;BME280;7475;53.558;9.970;2022-11-20T08:27:19;101002.28;;;3.37;100.00
14767;BME280;7475;53.558;9.970;2022-11-20T08:29:44;101010.88;;;3.42;100.00
14767;BME280;7475;53.558;9.970;2022-11-20T08:32:10;101018.56;;;3.49;100.00
14767;BME280;7475;53.558;9.970;2022-11-20T08:34:35;101017.56;;;3.53;100.00
14767;BME280;7475;53.558;9.970;2022-11-20T08:37:01;101013.06;;;3.56;100.00
14767;BME280;7475;53.558;9.970;2022-11-20T08:39:27;101013.84;;;3.60;100.00
14767;BME280;7475;53.558;9.970;2022-11-20T08:41:52;101018.06;;;3.64;100.00
14767;BME280;7475;53.558;9.970;2022-11-20T08:44:17;101020.66;;;3.65;100.00
14767;BME280;7475;53.558;9.970;2022-11-20T08:46:43;101019.66;;;3.70;100.00
14767;BME280;7475;53.558;9.970;2022-11-20T08:49:11;101025.69;;;3.73;100.00
14767;BME280;7475;53.558;9.970;2022-11-20T08:51:37;101023.84;;;3.75;100.00
14767;BME280;7475;53.558;9.970;2022-11-20T08:54:04;101018.59;;;3.75;100.00
14767;BME280;7475;53.558;9.970;2022-11-20T08:56:30;101014.16;;;3.77;100.00
14767;BME280;7475;53.558;9.970;2022-11-20T08:58:56;101013.16;;;3.81;100.00
14767;BME280;7475;53.558;9.970;2022-11-20T09:01:22;101007.69;;;3.88;100.00
14767;BME280;7475;53.558;9.970;2022-11-20T09:03:48;101009.22;;;3.95;100.00
14767;BME280;7475;53.558;9.970;2022-11-20T09:06:14;101018.72;;;3.99;100.00
14767;BME280;7475;53.558;9.970;2022-11-20T09:08:39;101019.50;;;4.01;100.00
14767;BME280;7475;53.558;9.970;2022-11-20T09:11:05;101022.97;;;4.03;100.00
14767;BME280;7475;53.558;9.970;2022-11-20T09:13:31;101016.72;;;4.06;100.00
14767;BME280;7475;53.558;9.970;2022-11-20T09:16:03;101004.47;;;4.06;100.00
14767;BME280;7475;53.558;9.970;2022-11-20T09:18:29;101010.53;;;4.08;100.00
14767;BME280;7475;53.558;9.970;2022-11-20T09:21:01;101010.31;;;4.14;100.00
14767;BME280;7475;53.558;9.970;2022-11-20T09:23:27;101011.06;;;4.18;100.00
14767;BME280;7475;53.558;9.970;2022-11-20T09:25:55;101015.44;;;4.19;100.00
14767;BME280;7475;53.558;9.970;2022-11-20T09:28:27;101015.47;;;4.17;100.00
14767;BME280;7475;53.558;9.970;2022-11-20T09:30:52;101003.44;;;4.10;100.00
14767;BME280;7475;53.558;9.970;2022-11-20T09:33:18;101012.34;;;4.06;100.00
14767;BME280;7475;53.558;9.970;2022-11-20T09:35:43;101012.47;;;4.03;100.00
14767;BME280;7475;53.558;9.970;2022-11-20T09:38:11;101012.66;;;3.97;100.00
14767;BME280;7475;53.558;9.970;2022-11-20T09:40:43;101018.19;;;3.88;100.00
14767;BME280;7475;53.558;9.970;2022-11-20T09:43:28;101017.41;;;3.86;100.00
14767;BME280;7475;53.558;9.970;2022-11-20T09:54:18;101030.13;;;3.71;100.00
14767;BME280;7475;53.558;9.970;2022-11-20T09:56:59;101018.69;;;3.72;100.00
14767;BME280;7475;53.558;9.970;2022-11-20T09:59:44;101020.41;;;3.73;100.00
14767;BME280;7475;53.558;9.970;2022-11-20T10:05:00;101013.44;;;3.72;100.00
14767;BME280;7475;53.558;9.970;2022-11-20T10:10:02;101010.81;;;4.26;100.00
14767;BME280;7475;53.558;9.970;2022-11-20T10:18:02;101009.56;;;4.86;100.00
14767;BME280;7475;53.558;9.970;2022-11-20T10:20:42;101001.91;;;5.02;100.00
14767;BME280;7475;53.558;9.970;2022-11-20T10:26:01;100998.00;;;5.36;100.00
14767;BME280;7475;53.558;9.970;2022-11-20T10:31:24;100997.16;;;5.58;100.00
14767;BME280;7475;53.558;9.970;2022-11-20T10:33:54;100991.16;;;5.54;100.00
14767;BME280;7475;53.558;9.970;2022-11-20T10:36:28;100987.47;;;5.58;100.00
14767;BME280;7475;53.558;9.970;2022-11-20T10:39:00;100990.03;;;5.60;100.00
14767;BME280;7475;53.558;9.970;2022-11-20T10:41:29;100985.81;;;5.56;100.00
14767;BME280;7475;53.558;9.970;2022-11-20T10:46:32;100982.72;;;5.66;100.00
14767;BME280;7475;53.558;9.970;2022-11-20T10:48:59;100983.03;;;5.81;100.00
14767;BME280;7475;53.558;9.970;2022-11-20T10:51:43;100972.09;;;5.90;100.00
14767;BME280;7475;53.558;9.970;2022-11-20T10:54:37;100976.59;;;5.88;100.00
14767;BME280;7475;53.558;9.970;2022-11-20T10:57:20;100968.28;;;5.77;100.00
14767;BME280;7475;53.558;9.970;2022-11-20T11:02:51;100972.22;;;5.87;100.00
14767;BME280;7475;53.558;9.970;2022-11-20T11:07:46;100974.22;;;6.04;100.00
14767;BME280;7475;53.558;9.970;2022-11-20T11:10:16;100966.00;;;5.90;100.00
14767;BME280;7475;53.558;9.970;2022-11-20T11:12:47;100967.16;;;5.82;100.00
14767;BME280;7475;53.558;9.970;2022-11-20T11:15:30;100960.72;;;5.90;100.00
14767;BME280;7475;53.558;9.970;2022-11-20T11:18:01;100956.41;;;5.87;100.00
14767;BME280;7475;53.558;9.970;2022-11-20T11:20:26;100958.41;;;5.82;100.00
14767;BME280;7475;53.558;9.970;2022-11-20T11:22:54;100956.84;;;5.78;100.00
14767;BME280;7475;53.558;9.970;2022-11-20T11:25:36;100951.56;;;5.78;100.00
14767;BME280;7475;53.558;9.970;2022-11-20T11:28:17;100953.13;;;5.82;100.00
14767;BME280;7475;53.558;9.970;2022-11-20T11:30:45;100956.16;;;5.93;100.00
14767;BME280;7475;53.558;9.970;2022-11-20T11:33:22;100953.25;;;6.01;100.00
14767;BME280;7475;53.558;9.970;2022-11-20T11:35:50;100957.66;;;6.00;100.00
14767;BME280;7475;53.558;9.970;2022-11-20T11:38:22;100956.91;;;5.97;100.00
14767;BME280;7475;53.558;9.970;2022-11-20T11:40:49;100954.53;;;5.91;100.00
14767;BME280;7475;53.558;9.970;2022-11-20T11:43:22;100950.50;;;5.82;100.00
14767;BME280;7475;53.558;9.970;2022-11-20T11:46:33;100951.06;;;5.68;100.00
14767;BME280;7475;53.558;9.970;2022-11-20T11:51:58;100946.06;;;5.40;100.00
14767;BME280;7475;53.558;9.970;2022-11-20T11:57:03;100959.03;;;5.22;100.00
14767;BME280;7475;53.558;9.970;2022-11-20T11:59:43;100942.63;;;5.16;100.00
14767;BME280;7475;53.558;9.970;2022-11-20T12:02:22;100944.53;;;5.12;100.00
14767;BME280;7475;53.558;9.970;2022-11-20T12:04:57;100949.84;;;5.10;100.00
14767;BME280;7475;53.558;9.970;2022-11-20T12:07:47;100945.44;;;5.11;100.00
14767;BME280;7475;53.558;9.970;2022-11-20T12:10:21;100952.44;;;5.12;100.00
14767;BME280;7475;53.558;9.970;2022-11-20T12:12:52;100950.34;;;5.20;100.00
14767;BME280;7475;53.558;9.970;2022-11-20T12:15:38;100944.84;;;5.26;100.00
14767;BME280;7475;53.558;9.970;2022-11-20T12:18:15;100937.63;;;5.32;100.00
14767;BME280;7475;53.558;9.970;2022-11-20T12:20:45;100933.06;;;5.35;100.00
14767;BME280;7475;53.558;9.970;2022-11-20T12:42:55;100908.81;;;5.27;100.00
14767;BME280;7475;53.558;9.970;2022-11-20T12:48:58;100913.50;;;5.20;100.00
14767;BME280;7475;53.558;9.970;2022-11-20T12:59:43;100912.50;;;5.45;100.00
14767;BME280;7475;53.558;9.970;2022-11-20T13:07:26;100919.47;;;5.46;100.00
14767;BME280;7475;53.558;9.970;2022-11-20T13:09:53;100912.72;;;5.39;100.00
14767;BME280;7475;53.558;9.970;2022-11-20T13:12:33;100911.16;;;5.35;100.00
14767;BME280;7475;53.558;9.970;2022-11-20T13:17:40;100898.91;;;5.34;100.00
14767;BME280;7475;53.558;9.970;2022-11-20T13:20:14;100897.94;;;5.36;100.00
14767;BME280;7475;53.558;9.970;2022-11-20T13:22:48;100902.19;;;5.39;100.00
14767;BME280;7475;53.558;9.970;2022-11-20T13:25:31;100896.81;;;5.42;100.00
14767;BME280;7475;53.558;9.970;2022-11-20T13:27:58;100893.13;;;5.46;100.00
14767;BME280;7475;53.558;9.970;2022-11-20T13:30:26;100893.00;;;5.49;100.00
14767;BME280;7475;53.558;9.970;2022-11-20T13:32:56;100888.53;;;5.51;100.00
14767;BME280;7475;53.558;9.970;2022-11-20T13:40:34;100891.16;;;5.51;100.00
14767;BME280;7475;53.558;9.970;2022-11-20T13:43:35;100889.44;;;5.50;100.00
14767;BME280;7475;53.558;9.970;2022-11-20T13:46:07;100882.47;;;5.49;100.00
14767;BME280;7475;53.558;9.970;2022-11-20T13:48:45;100884.16;;;5.50;100.00
14767;BME280;7475;53.558;9.970;2022-11-20T13:51:40;100881.47;;;5.52;100.00
14767;BME280;7475;53.558;9.970;2022-11-20T13:59:53;100871.94;;;5.49;100.00
14767;BME280;7475;53.558;9.970;2022-11-20T14:02:22;100872.19;;;5.43;100.00
14767;BME280;7475;53.558;9.970;2022-11-20T14:04:50;100864.53;;;5.37;100.00
14767;BME280;7475;53.558;9.970;2022-11-20T14:07:18;100862.88;;;5.34;100.00
14767;BME280;7475;53.558;9.970;2022-11-20T14:09:52;100865.56;;;5.33;100.00
14767;BME280;7475;53.558;9.970;2022-11-20T14:12:21;100865.56;;;5.33;100.00
14767;BME280;7475;53.558;9.970;2022-11-20T14:14:52;100862.16;;;5.31;100.00
14767;BME280;7475;53.558;9.970;2022-11-20T14:17:29;100861.44;;;5.27;100.00
14767;BME280;7475;53.558;9.970;2022-11-20T14:19:59;100855.44;;;5.23;100.00
14767;BME280;7475;53.558;9.970;2022-11-20T14:22:26;100859.09;;;5.19;100.00
14767;BME280;7475;53.558;9.970;2022-11-20T14:27:33;100853.34;;;5.09;100.00
14767;BME280;7475;53.558;9.970;2022-11-20T14:30:00;100850.66;;;5.11;100.00
14767;BME280;7475;53.558;9.970;2022-11-20T14:32:28;100846.97;;;5.15;100.00
14767;BME280;7475;53.558;9.970;2022-11-20T14:34:57;100850.41;;;5.17;100.00
14767;BME280;7475;53.558;9.970;2022-11-20T14:37:26;100853.97;;;5.16;100.00
14767;BME280;7475;53.558;9.970;2022-11-20T14:39:56;100853.97;;;5.16;100.00
14767;BME280;7475;53.558;9.970;2022-11-20T14:42:25;100854.06;;;5.13;100.00
14767;BME280;7475;53.558;9.970;2022-11-20T14:44:56;100848.94;;;5.10;100.00